This is the latest recevied weather packets stored in our database for station/object AC0MR. If no packets are shown the sender has not sent any weather packets the latest 10 day(s).
| Time | Temp. | Humidity | Pressure | Rain* | Wind** | Luminosity | Snow |
|---|---|---|---|---|---|---|---|
| 1778090119 | 10° C | 43% | 1016.3 hPa | 0 mm | - | 448 W/m² | - |
| 1778089519 | 10° C | 44% | 1016.2 hPa | 0 mm | - | 440 W/m² | - |
| 1778088919 | 10° C | 42% | 1016.4 hPa | 0 mm | - | 401 W/m² | - |
| 1778088319 | 10° C | 42% | 1016.3 hPa | 0 mm | - | 580 W/m² | - |
| 1778087718 | 10° C | 42% | 1016.4 hPa | 0 mm | - | 373 W/m² | - |
| 1778087118 | 10° C | 43% | 1016.4 hPa | 0 mm | - | 421 W/m² | - |
| 1778086518 | 10° C | 44% | 1016.3 hPa | 0 mm | - | 421 W/m² | - |
| 1778085919 | 10° C | 44% | 1016.3 hPa | 0 mm | - | 459 W/m² | - |
| 1778085319 | 10.56° C | 41% | 1016.4 hPa | 0 mm | - | 506 W/m² | - |
| 1778084719 | 10.56° C | 45% | 1016.3 hPa | 0 mm | - | 1016 W/m² | - |
| 1778084118 | 10.56° C | 46% | 1016.4 hPa | 0 mm | - | 813 W/m² | - |
| 1778083518 | 10° C | 43% | 1016.4 hPa | 0 mm | - | 976 W/m² | - |
| 1778082919 | 10° C | 45% | 1016.3 hPa | 0 mm | - | 872 W/m² | - |
| 1778082319 | 10° C | 46% | 1016.4 hPa | 0 mm | - | 837 W/m² | - |
| 1778081719 | 9.44° C | 45% | 1016.5 hPa | 0 mm | - | 790 W/m² | - |
| 1778081119 | 9.44° C | 49% | 1016.4 hPa | 0 mm | - | 730 W/m² | - |
| 1778080518 | 8.89° C | 47% | 1016.4 hPa | 0 mm | - | 692 W/m² | - |
| 1778079918 | 8.89° C | 47% | 1016.4 hPa | 0 mm | - | 668 W/m² | - |
| 1778079318 | 8.89° C | 48% | 1016.3 hPa | 0 mm | - | 600 W/m² | - |
| 1778078718 | 8.89° C | 50% | 1016 hPa | 0 mm | - | 607 W/m² | - |
| 1778078118 | 8.33° C | 51% | 1016 hPa | 0 mm | - | 513 W/m² | - |
| 1778077518 | 8.33° C | 52% | 1016 hPa | 0 mm | - | 427 W/m² | - |
| 1778076919 | 7.78° C | 52% | 1016.1 hPa | 0 mm | - | 381 W/m² | - |
| 1778076318 | 7.78° C | 54% | 1016.2 hPa | 0 mm | - | 404 W/m² | - |
| 1778075718 | 7.22° C | 56% | 1016.2 hPa | 0 mm | - | 337 W/m² | - |
* Rain latest hour (hover to see other rain measurements)
** Current wind speed in m/s (hover to see current wind gust speed)